Modesto, California
Current Conditions -  °F | °C
As of 8:53 AM on Friday 19 Dec 2014 (Local Time) from KMOD Reporting Station
Overcast Overcast  
Wind Chill: 11°   Ceiling: 4600
Heat Index: 11°   Visibility: 10mi
Dew Point:   Wind: 5mph
Humidity: 77%   Direction: 150°SSE
Pressure: 30.2"   Gusts: NA
Location:  37.64°N, 120.99°W
Report Text: KMOD 191653Z 15004KT 10SM BKN046 BKN060 OVC075 11/07 A3020 RMK AO2 SLP228 T01060067
Loading
Personal Weather Stations






























Interactive Weather Map New forecast layout! Learn more

10-Day Weather Forecast

Advertisements
Track Severe Weather on mobile